createdAt,value
2022-09-06T00:00:13.169Z,69.24
2022-09-06T00:01:12.179Z,69.04
2022-09-06T00:02:12.591Z,69.04
2022-09-06T00:03:13.138Z,69.34
2022-09-06T00:04:15.459Z,69.04
2022-09-06T00:05:12.191Z,69.04
2022-09-06T00:06:12.145Z,69.34
2022-09-06T00:07:12.998Z,69.45
2022-09-06T00:08:12.085Z,69.34
2022-09-06T00:09:12.079Z,69.55
2022-09-06T00:10:12.023Z,69.95
2022-09-06T00:11:12.957Z,69.45
2022-09-06T00:12:12.024Z,69.48
2022-09-06T00:13:12.937Z,69.48
2022-09-06T00:14:12.035Z,69.38
2022-09-06T00:15:11.979Z,69.07
2022-09-06T00:16:12.082Z,68.94
2022-09-06T00:17:12.800Z,68.94
2022-09-06T00:18:12.917Z,68.94
2022-09-06T00:19:11.922Z,69.14
2022-09-06T00:20:14.361Z,69.14
2022-09-06T00:21:12.810Z,69.34
2022-09-06T00:22:12.880Z,69.27
2022-09-06T00:23:12.741Z,69.89
2022-09-06T00:24:13.879Z,69.48
2022-09-06T00:25:11.972Z,69.68
2022-09-06T00:26:12.533Z,69.48
2022-09-06T00:27:11.785Z,69.58
2022-09-06T00:28:11.775Z,69.68
2022-09-06T00:29:12.742Z,70.59
2022-09-06T00:30:12.586Z,69.89
2022-09-06T00:31:11.882Z,69.78
2022-09-06T00:32:12.228Z,70.18
2022-09-06T00:33:12.560Z,69.58
2022-09-06T00:34:11.713Z,69.58
2022-09-06T00:35:12.819Z,69.27
2022-09-06T00:36:12.540Z,69.27
2022-09-06T00:37:11.639Z,69.07
2022-09-06T00:38:12.576Z,68.97
2022-09-06T00:39:11.666Z,68.97
2022-09-06T00:40:12.468Z,69.18
2022-09-06T00:41:11.636Z,69.27
2022-09-06T00:42:12.553Z,69.58
2022-09-06T00:43:11.569Z,69.38
2022-09-06T00:44:12.518Z,69.18
2022-09-06T00:45:12.421Z,69.38
2022-09-06T00:46:11.591Z,69.58
2022-09-06T00:47:11.510Z,69.68
2022-09-06T00:48:12.413Z,69.38
2022-09-06T00:49:12.290Z,69.58
2022-09-06T00:50:11.568Z,69.48
2022-09-06T00:51:11.521Z,69.27
2022-09-06T00:52:12.181Z,69.58
2022-09-06T00:53:11.532Z,69.58
2022-09-06T00:54:12.330Z,69.58
2022-09-06T00:55:11.404Z,69.58
2022-09-06T00:56:11.438Z,69.27
2022-09-06T00:57:11.405Z,69.07
2022-09-06T00:58:11.358Z,69.07
2022-09-06T00:59:12.702Z,68.87
2022-09-06T01:00:11.367Z,68.77
2022-09-06T01:01:12.504Z,68.77
2022-09-06T01:02:11.381Z,69.38
2022-09-06T01:03:11.303Z,68.77
2022-09-06T01:04:11.273Z,69.18
2022-09-06T01:05:11.306Z,69.48
2022-09-06T01:06:14.484Z,68.97
2022-09-06T01:07:11.883Z,69.21
2022-09-06T01:08:11.229Z,69.10
2022-09-06T01:09:12.166Z,68.90
2022-09-06T01:10:12.067Z,69.61
2022-09-06T01:11:11.988Z,69.21
2022-09-06T01:12:12.141Z,68.80
2022-09-06T01:13:12.083Z,68.50
2022-09-06T01:14:11.946Z,68.80
2022-09-06T01:15:11.548Z,68.47
2022-09-06T01:16:11.158Z,68.26
2022-09-06T01:17:11.575Z,68.47
2022-09-06T01:18:12.073Z,68.26
2022-09-06T01:19:11.978Z,68.26
2022-09-06T01:20:11.059Z,68.16
2022-09-06T01:21:11.059Z,68.37
2022-09-06T01:22:11.023Z,69.27
2022-09-06T01:23:11.072Z,68.60
2022-09-06T01:24:12.013Z,68.30
2022-09-06T01:25:11.010Z,68.60
2022-09-06T01:26:11.822Z,68.10
2022-09-06T01:27:10.970Z,68.19
2022-09-06T01:28:10.957Z,68.19
2022-09-06T01:29:11.274Z,68.30
2022-09-06T01:30:11.690Z,68.30
2022-09-06T01:31:11.047Z,67.79
2022-09-06T01:32:11.755Z,67.89
2022-09-06T01:33:11.654Z,67.89
2022-09-06T01:34:11.825Z,67.79
2022-09-06T01:35:12.793Z,67.35
2022-09-06T01:36:11.623Z,67.35
2022-09-06T01:37:11.171Z,67.05
2022-09-06T01:38:10.816Z,66.55
2022-09-06T01:39:10.822Z,66.55
2022-09-06T01:40:10.931Z,66.35
2022-09-06T01:41:10.776Z,66.35
2022-09-06T01:42:10.774Z,66.24
2022-09-06T01:43:11.737Z,66.95
2022-09-06T01:44:10.723Z,66.44
2022-09-06T01:45:10.725Z,65.94
2022-09-06T01:46:11.694Z,65.84
2022-09-06T01:47:10.675Z,66.24
2022-09-06T01:48:10.827Z,66.14
2022-09-06T01:49:11.690Z,66.24
2022-09-06T01:50:11.482Z,67.15
2022-09-06T01:51:10.791Z,66.04
2022-09-06T01:52:10.905Z,66.44
2022-09-06T01:53:11.081Z,65.64
2022-09-06T01:54:11.427Z,66.04
2022-09-06T01:55:11.329Z,65.64
2022-09-06T01:56:11.561Z,65.73
2022-09-06T01:57:10.549Z,65.53
2022-09-06T01:58:10.547Z,65.03
2022-09-06T01:59:10.659Z,65.53
2022-09-06T02:00:11.369Z,65.33
2022-09-06T02:01:10.601Z,66.14
2022-09-06T02:02:11.509Z,66.24
2022-09-06T02:03:10.499Z,66.14
2022-09-06T02:04:11.236Z,65.43
2022-09-06T02:05:10.470Z,66.14
2022-09-06T02:06:10.444Z,66.14
2022-09-06T02:07:12.407Z,66.35
2022-09-06T02:08:11.361Z,65.64
2022-09-06T02:09:11.270Z,65.84
2022-09-06T02:10:11.247Z,65.13
2022-09-06T02:11:10.381Z,65.13
2022-09-06T02:12:12.396Z,65.23
2022-09-06T02:13:10.362Z,64.42
2022-09-06T02:14:11.302Z,64.42
2022-09-06T02:15:11.242Z,64.22
2022-09-06T02:16:11.109Z,63.92
2022-09-06T02:17:11.322Z,63.51
2022-09-06T02:18:11.175Z,63.61
2022-09-06T02:19:10.254Z,63.48
2022-09-06T02:20:10.984Z,63.28
2022-09-06T02:21:11.150Z,63.38
2022-09-06T02:22:10.241Z,63.48
2022-09-06T02:23:10.994Z,63.38
2022-09-06T02:24:11.206Z,63.28
2022-09-06T02:25:11.017Z,63.21
2022-09-06T02:26:10.175Z,63.01
2022-09-06T02:27:11.092Z,62.90
2022-09-06T02:28:10.984Z,63.31
2022-09-06T02:29:10.119Z,63.21
2022-09-06T02:30:11.049Z,63.10
2022-09-06T02:31:10.211Z,63.31
2022-09-06T02:32:10.077Z,62.81
2022-09-06T02:33:10.049Z,62.50
2022-09-06T02:34:11.978Z,62.40
2022-09-06T02:35:10.818Z,62.30
2022-09-06T02:36:11.065Z,62.81
2022-09-06T02:37:10.889Z,62.50
2022-09-06T02:38:10.969Z,62.19
2022-09-06T02:39:10.949Z,62.30
2022-09-06T02:40:10.059Z,62.19
2022-09-06T02:41:10.766Z,61.96
2022-09-06T02:42:10.919Z,62.16
2022-09-06T02:43:09.918Z,62.19
2022-09-06T02:44:10.730Z,61.59
2022-09-06T02:45:10.892Z,61.87
2022-09-06T02:46:09.952Z,61.46
2022-09-06T02:47:10.694Z,61.66
2022-09-06T02:48:09.878Z,62.16
2022-09-06T02:49:09.821Z,61.90
2022-09-06T02:50:09.816Z,61.90
2022-09-06T02:51:09.837Z,61.90
2022-09-06T02:52:10.734Z,61.69
2022-09-06T02:53:10.655Z,61.90
2022-09-06T02:54:10.537Z,61.90
2022-09-06T02:55:09.746Z,61.69
2022-09-06T02:56:09.723Z,61.49
2022-09-06T02:57:09.779Z,61.49
2022-09-06T02:58:09.694Z,61.49
2022-09-06T02:59:10.611Z,61.59
2022-09-06T03:00:09.711Z,61.59
2022-09-06T03:01:09.703Z,61.49
2022-09-06T03:02:10.576Z,61.69
2022-09-06T03:03:09.679Z,61.59
2022-09-06T03:04:09.679Z,61.39
2022-09-06T03:05:09.607Z,61.49
2022-09-06T03:06:09.597Z,62.10
2022-09-06T03:07:09.579Z,61.99
2022-09-06T03:08:10.471Z,61.29
2022-09-06T03:09:09.587Z,61.99
2022-09-06T03:10:09.568Z,61.19
2022-09-06T03:11:09.567Z,61.69
2022-09-06T03:12:10.337Z,60.58
2022-09-06T03:13:09.515Z,61.19
2022-09-06T03:14:09.527Z,61.29
2022-09-06T03:15:09.498Z,61.79
2022-09-06T03:16:09.471Z,61.08
2022-09-06T03:17:11.405Z,60.78
2022-09-06T03:18:10.279Z,60.68
2022-09-06T03:19:10.185Z,60.78
2022-09-06T03:20:09.466Z,60.48
2022-09-06T03:21:10.249Z,61.69
2022-09-06T03:22:10.152Z,61.49
2022-09-06T03:23:09.379Z,61.69
2022-09-06T03:24:10.212Z,60.98
2022-09-06T03:25:09.358Z,60.68
2022-09-06T03:26:09.321Z,61.49
2022-09-06T03:27:09.305Z,61.39
2022-09-06T03:28:10.092Z,60.91
2022-09-06T03:29:10.252Z,62.02
2022-09-06T03:30:10.150Z,61.72
2022-09-06T03:31:10.113Z,61.11
2022-09-06T03:32:10.245Z,61.21
2022-09-06T03:33:09.221Z,61.01
2022-09-06T03:34:11.213Z,60.50
2022-09-06T03:35:09.567Z,60.41
2022-09-06T03:36:09.187Z,61.01
2022-09-06T03:37:09.179Z,60.50
2022-09-06T03:38:09.895Z,60.00
2022-09-06T03:39:09.203Z,60.61
2022-09-06T03:40:10.013Z,60.41
2022-09-06T03:41:10.119Z,60.61
2022-09-06T03:42:10.026Z,60.30
2022-09-06T03:43:09.098Z,61.11
2022-09-06T03:44:09.046Z,61.32
2022-09-06T03:45:09.988Z,60.71
2022-09-06T03:46:09.972Z,60.81
2022-09-06T03:47:09.797Z,61.35
2022-09-06T03:48:09.957Z,60.33
2022-09-06T03:49:09.903Z,60.23
2022-09-06T03:50:10.922Z,60.53
2022-09-06T03:51:09.933Z,61.44
2022-09-06T03:52:09.901Z,60.63
2022-09-06T03:53:08.952Z,60.53
2022-09-06T03:54:08.960Z,60.53
2022-09-06T03:55:09.802Z,61.14
2022-09-06T03:56:09.703Z,60.84
2022-09-06T03:57:09.860Z,60.43
2022-09-06T03:58:08.849Z,60.33
2022-09-06T03:59:08.918Z,60.43
2022-09-06T04:00:09.830Z,60.74
2022-09-06T04:01:10.835Z,59.83
2022-09-06T04:02:09.423Z,60.53
2022-09-06T04:03:08.803Z,59.92
2022-09-06T04:04:08.890Z,59.83
2022-09-06T04:05:10.300Z,59.92
2022-09-06T04:06:08.809Z,59.42
2022-09-06T04:07:08.872Z,59.52
2022-09-06T04:08:09.575Z,59.32
2022-09-06T04:09:09.524Z,59.52
2022-09-06T04:10:09.646Z,60.03
2022-09-06T04:11:08.713Z,59.83
2022-09-06T04:12:10.645Z,59.22
2022-09-06T04:13:09.417Z,59.83
2022-09-06T04:14:17.973Z,60.03
2022-09-06T04:15:09.413Z,59.83
2022-09-06T04:16:08.649Z,59.32
2022-09-06T04:17:09.488Z,59.72
2022-09-06T04:18:10.406Z,59.83
2022-09-06T04:19:09.547Z,59.72
2022-09-06T04:20:09.488Z,60.03
2022-09-06T04:21:09.348Z,59.72
2022-09-06T04:22:11.640Z,60.03
2022-09-06T04:23:36.396Z,60.26
2022-09-06T04:24:20.960Z,60.06
2022-09-06T04:25:09.615Z,60.86
2022-09-06T04:26:09.507Z,60.26
2022-09-06T04:27:09.304Z,60.26
2022-09-06T04:28:08.450Z,60.06
2022-09-06T04:29:09.351Z,60.36
2022-09-06T04:30:08.656Z,60.06
2022-09-06T04:31:12.112Z,60.06
2022-09-06T04:32:15.480Z,60.46
2022-09-06T04:33:08.661Z,60.97
2022-09-06T04:34:10.354Z,60.46
2022-09-06T04:35:08.691Z,60.26
2022-09-06T04:36:09.291Z,60.39
2022-09-06T04:37:09.115Z,61.10
2022-09-06T04:38:08.321Z,60.69
2022-09-06T04:39:09.167Z,60.39
2022-09-06T04:40:08.386Z,60.69
2022-09-06T04:41:09.227Z,60.79
2022-09-06T04:42:08.292Z,61.40
2022-09-06T04:43:08.325Z,60.59
2022-09-06T04:44:09.244Z,60.69
2022-09-06T04:45:09.094Z,60.89
2022-09-06T04:46:09.051Z,60.59
2022-09-06T04:47:09.605Z,60.59
2022-09-06T04:48:08.260Z,61.10
2022-09-06T04:49:08.969Z,60.79
2022-09-06T04:50:08.226Z,60.79
2022-09-06T04:51:08.683Z,61.40
2022-09-06T04:52:08.939Z,60.59
2022-09-06T04:53:08.754Z,60.49
2022-09-06T04:54:09.000Z,60.49
2022-09-06T04:55:08.079Z,60.69
2022-09-06T04:56:09.066Z,60.59
2022-09-06T04:57:08.112Z,61.20
2022-09-06T04:58:08.875Z,61.20
2022-09-06T04:59:08.779Z,60.39
2022-09-06T05:00:08.129Z,60.89
2022-09-06T05:01:08.947Z,60.89
2022-09-06T05:02:08.115Z,62.11
2022-09-06T05:03:12.051Z,61.51
2022-09-06T05:04:08.072Z,61.60
2022-09-06T05:05:08.112Z,61.20
2022-09-06T05:06:08.071Z,61.51
2022-09-06T05:07:07.953Z,60.89
2022-09-06T05:08:08.681Z,61.51
2022-09-06T05:09:07.944Z,61.20
2022-09-06T05:10:08.747Z,60.79
2022-09-06T05:11:08.657Z,61.80
2022-09-06T05:12:08.017Z,61.10
2022-09-06T05:13:08.780Z,61.20
2022-09-06T05:14:08.622Z,61.60
2022-09-06T05:15:08.785Z,61.60
2022-09-06T05:16:08.765Z,60.89
2022-09-06T05:17:08.509Z,61.80
2022-09-06T05:18:11.784Z,61.80
2022-09-06T05:19:08.764Z,61.30
2022-09-06T05:20:07.873Z,61.51
2022-09-06T05:21:07.797Z,60.49
2022-09-06T05:22:09.614Z,60.49
2022-09-06T05:23:10.834Z,60.39
2022-09-06T05:24:07.726Z,60.66
2022-09-06T05:25:08.606Z,59.95
2022-09-06T05:26:07.636Z,60.66
2022-09-06T05:27:07.875Z,60.16
2022-09-06T05:28:07.631Z,59.95
2022-09-06T05:29:07.683Z,60.06
2022-09-06T05:30:10.576Z,60.06
2022-09-06T05:31:08.520Z,59.45
2022-09-06T05:32:07.642Z,59.75
2022-09-06T05:33:09.021Z,59.55
2022-09-06T05:34:07.719Z,59.55
2022-09-06T05:35:09.158Z,59.63
2022-09-06T05:36:09.478Z,59.52
2022-09-06T05:37:07.525Z,59.72
2022-09-06T05:38:07.496Z,60.43
2022-09-06T05:39:08.423Z,60.03
2022-09-06T05:40:07.612Z,59.83
2022-09-06T05:41:08.439Z,60.13
2022-09-06T05:42:08.925Z,59.63
2022-09-06T05:43:08.404Z,59.22
2022-09-06T05:44:08.374Z,59.32
2022-09-06T05:45:07.361Z,59.22
2022-09-06T05:46:08.452Z,59.63
2022-09-06T05:47:07.376Z,59.52
2022-09-06T05:48:09.378Z,59.42
2022-09-06T05:49:08.089Z,59.32
2022-09-06T05:50:08.233Z,59.83
2022-09-06T05:51:09.256Z,59.22
2022-09-06T05:52:08.043Z,59.32
2022-09-06T05:53:08.206Z,59.52
2022-09-06T05:54:09.197Z,59.22
2022-09-06T05:55:11.300Z,58.71
2022-09-06T05:56:07.374Z,59.29
2022-09-06T05:57:09.224Z,59.19
2022-09-06T05:58:07.975Z,58.78
2022-09-06T05:59:08.070Z,58.58
2022-09-06T06:00:08.016Z,59.29
2022-09-06T06:01:08.373Z,58.99
2022-09-06T06:02:08.270Z,58.89
2022-09-06T06:03:07.546Z,58.15
2022-09-06T06:04:09.570Z,58.65
2022-09-06T06:05:08.084Z,58.86
2022-09-06T06:06:07.909Z,58.45
2022-09-06T06:07:07.878Z,59.06
2022-09-06T06:08:08.059Z,58.56
2022-09-06T06:09:08.029Z,58.56
2022-09-06T06:10:07.059Z,58.65
2022-09-06T06:11:08.011Z,58.96
2022-09-06T06:12:07.852Z,59.06
2022-09-06T06:13:07.062Z,59.03
2022-09-06T06:14:07.142Z,58.73
2022-09-06T06:15:08.969Z,58.23
2022-09-06T06:16:06.984Z,59.14
2022-09-06T06:17:07.690Z,57.92
2022-09-06T06:18:06.884Z,57.92
2022-09-06T06:19:12.703Z,59.14
2022-09-06T06:20:07.731Z,58.02
2022-09-06T06:21:06.888Z,57.82
2022-09-06T06:22:07.583Z,59.84
2022-09-06T06:23:06.820Z,60.05
2022-09-06T06:24:07.254Z,58.12
2022-09-06T06:25:07.699Z,58.63
2022-09-06T06:26:06.826Z,59.11
2022-09-06T06:27:07.793Z,59.11
2022-09-06T06:28:06.743Z,58.80
2022-09-06T06:29:07.564Z,57.18
2022-09-06T06:30:06.725Z,57.89
2022-09-06T06:31:07.368Z,57.69
2022-09-06T06:32:07.667Z,58.80
2022-09-06T06:33:07.426Z,58.60
2022-09-06T06:34:06.665Z,58.40
2022-09-06T06:35:06.653Z,58.27
2022-09-06T06:36:07.466Z,57.87
2022-09-06T06:37:06.649Z,58.17
2022-09-06T06:38:06.684Z,57.76
2022-09-06T06:39:06.608Z,58.14
2022-09-06T06:40:06.747Z,56.93
2022-09-06T06:41:07.449Z,57.34
2022-09-06T06:42:07.365Z,56.73
2022-09-06T06:43:06.563Z,57.01
2022-09-06T06:44:06.559Z,56.81
2022-09-06T06:45:07.307Z,56.70
2022-09-06T06:46:06.594Z,56.10
2022-09-06T06:47:07.375Z,56.40
2022-09-06T06:48:07.323Z,56.70
2022-09-06T06:49:07.437Z,56.81
2022-09-06T06:50:07.333Z,56.50
2022-09-06T06:51:06.430Z,57.51
2022-09-06T06:52:06.442Z,57.48
2022-09-06T06:53:06.443Z,57.08
2022-09-06T06:54:06.408Z,57.38
2022-09-06T06:55:06.445Z,56.88
2022-09-06T06:56:07.272Z,57.28
2022-09-06T06:57:06.413Z,56.37
2022-09-06T06:58:07.334Z,56.17
2022-09-06T06:59:06.313Z,56.37
2022-09-06T07:00:07.143Z,56.88
2022-09-06T07:01:07.483Z,56.17
2022-09-06T07:02:08.320Z,57.18
2022-09-06T07:03:07.113Z,56.88
2022-09-06T07:04:06.236Z,56.68
2022-09-06T07:08:11.874Z,57.51
2022-09-06T07:09:06.281Z,57.10
2022-09-06T07:11:08.140Z,58.22
2022-09-06T07:12:06.139Z,57.38
2022-09-06T07:13:06.770Z,58.09
2022-09-06T07:14:06.381Z,56.68
2022-09-06T07:15:06.987Z,57.28
2022-09-06T07:16:06.924Z,58.09
2022-09-06T07:17:08.827Z,56.98
2022-09-06T07:18:06.981Z,57.28
2022-09-06T07:19:06.975Z,56.17
2022-09-06T07:20:14.756Z,56.77
2022-09-06T07:22:10.509Z,57.35
2022-09-06T07:24:08.881Z,56.48
2022-09-06T07:25:06.833Z,57.48
2022-09-06T07:26:05.933Z,57.76
2022-09-06T07:28:07.782Z,57.15
2022-09-06T07:29:05.946Z,56.68
2022-09-06T07:30:06.823Z,57.86
2022-09-06T07:31:07.347Z,57.56
2022-09-06T07:32:13.019Z,57.76
2022-09-06T07:33:06.844Z,57.68
2022-09-06T07:34:05.853Z,57.35
2022-09-06T07:35:06.668Z,57.18
2022-09-06T07:36:05.846Z,58.06
2022-09-06T07:37:05.840Z,57.96
2022-09-06T07:38:05.778Z,57.86
2022-09-06T07:39:05.755Z,57.76
2022-09-06T07:40:05.804Z,57.86
2022-09-06T07:41:05.814Z,57.96
2022-09-06T07:42:06.699Z,56.65
2022-09-06T07:43:06.599Z,57.32
2022-09-06T07:44:06.512Z,56.90
2022-09-06T07:45:06.634Z,57.30
2022-09-06T07:46:05.657Z,57.00
2022-09-06T07:48:06.679Z,56.49
2022-09-06T07:49:05.656Z,56.90
2022-09-06T07:51:06.737Z,56.49
2022-09-06T07:53:11.219Z,57.30
2022-09-06T07:54:29.426Z,57.10
2022-09-06T07:55:06.547Z,57.70
2022-09-06T07:56:06.417Z,57.10
2022-09-06T07:57:05.541Z,57.00
2022-09-06T07:58:05.492Z,56.97
2022-09-06T07:59:05.497Z,57.17
2022-09-06T08:00:05.478Z,56.67
2022-09-06T08:01:06.543Z,55.87
2022-09-06T08:02:05.640Z,56.37
2022-09-06T08:03:05.460Z,57.48
2022-09-06T08:04:06.374Z,56.87
2022-09-06T08:09:06.427Z,56.11
2022-09-06T08:10:05.326Z,55.58
2022-09-06T08:11:05.325Z,55.99
2022-09-06T08:12:05.346Z,55.18
2022-09-06T08:13:06.257Z,55.55
2022-09-06T08:14:05.575Z,55.66
2022-09-06T08:15:05.813Z,56.26
2022-09-06T08:16:06.024Z,55.86
2022-09-06T08:17:05.252Z,56.06
2022-09-06T08:18:05.220Z,55.35
2022-09-06T08:19:05.334Z,55.46
2022-09-06T08:20:05.297Z,55.96
2022-09-06T08:21:09.064Z,55.46
2022-09-06T08:22:06.950Z,55.16
2022-09-06T08:23:05.443Z,55.28
2022-09-06T08:24:06.022Z,55.99
2022-09-06T08:25:05.103Z,56.36
2022-09-06T08:26:06.060Z,55.55
2022-09-06T08:27:05.964Z,55.76
2022-09-06T08:28:05.864Z,55.88
2022-09-06T08:29:05.258Z,56.38
2022-09-06T08:30:05.941Z,55.88
2022-09-06T08:31:05.175Z,56.59
2022-09-06T08:32:05.996Z,56.49
2022-09-06T08:33:05.028Z,56.19
2022-09-06T08:34:05.801Z,55.79
2022-09-06T08:35:05.970Z,56.09
2022-09-06T08:36:05.026Z,56.99
2022-09-06T08:37:05.045Z,56.09
2022-09-06T08:38:05.053Z,56.49
2022-09-06T08:39:04.927Z,56.29
2022-09-06T08:40:05.248Z,56.59
2022-09-06T08:41:06.005Z,56.29
2022-09-06T08:42:04.902Z,57.46
2022-09-06T08:43:05.107Z,56.76
2022-09-06T08:45:05.824Z,56.79
2022-09-06T08:46:04.907Z,56.79
2022-09-06T08:47:04.861Z,56.09
2022-09-06T08:48:05.758Z,56.38
2022-09-06T08:49:04.871Z,56.49
2022-09-06T08:50:04.825Z,57.50
2022-09-06T08:51:05.707Z,57.09
2022-09-06T08:52:05.621Z,56.71
2022-09-06T08:53:19.961Z,57.62
2022-09-06T08:54:06.700Z,57.62
2022-09-06T08:55:05.643Z,57.22
2022-09-06T08:56:04.966Z,57.32
2022-09-06T08:57:04.805Z,58.33
2022-09-06T08:58:05.545Z,57.82
2022-09-06T08:59:04.930Z,57.32
2022-09-06T09:00:06.393Z,58.22
2022-09-06T09:01:05.596Z,58.12
2022-09-06T09:02:04.697Z,58.12
2022-09-06T09:03:05.624Z,58.05
2022-09-06T09:04:05.487Z,57.55
2022-09-06T09:05:05.415Z,58.55
2022-09-06T09:06:05.619Z,58.55
2022-09-06T09:07:05.447Z,57.95
2022-09-06T09:08:04.554Z,58.86
2022-09-06T09:09:04.506Z,58.55
2022-09-06T09:10:04.546Z,58.15
2022-09-06T09:11:04.669Z,58.75
2022-09-06T09:12:04.495Z,59.26
2022-09-06T09:13:04.623Z,58.73
2022-09-06T09:14:04.476Z,58.53
2022-09-06T09:15:05.201Z,58.75
2022-09-06T09:16:04.436Z,58.55
2022-09-06T09:17:04.433Z,59.06
2022-09-06T09:18:05.159Z,58.25
2022-09-06T09:19:04.417Z,58.75
2022-09-06T09:20:05.224Z,59.26
2022-09-06T09:21:04.371Z,59.06
2022-09-06T09:22:05.288Z,59.36
2022-09-06T09:23:04.318Z,59.66
2022-09-06T09:24:04.292Z,59.06
2022-09-06T09:25:05.261Z,60.16
2022-09-06T09:26:04.274Z,59.86
2022-09-06T09:27:04.273Z,59.76
2022-09-06T09:28:04.242Z,60.06
2022-09-06T09:29:04.301Z,59.56
2022-09-06T09:31:07.285Z,59.36
2022-09-06T09:32:04.279Z,59.53
2022-09-06T09:33:05.022Z,58.95
2022-09-06T09:34:04.194Z,59.46
2022-09-06T09:35:04.145Z,60.06
2022-09-06T09:36:04.146Z,59.76
2022-09-06T09:38:09.493Z,59.56
2022-09-06T09:39:05.986Z,59.96
2022-09-06T09:40:04.480Z,58.95
2022-09-06T09:41:04.993Z,59.56
2022-09-06T09:42:04.909Z,60.24
2022-09-06T09:43:04.047Z,59.83
2022-09-06T09:44:05.274Z,59.23
2022-09-06T09:45:04.868Z,59.53
2022-09-06T09:46:04.781Z,59.66
2022-09-06T09:47:04.230Z,59.46
2022-09-06T09:48:04.003Z,60.33
2022-09-06T09:49:03.948Z,60.24
2022-09-06T09:50:04.923Z,59.43
2022-09-06T09:51:03.969Z,60.03
2022-09-06T09:52:03.916Z,59.74
2022-09-06T09:53:03.937Z,60.84
2022-09-06T09:54:03.905Z,60.61
2022-09-06T09:55:04.685Z,59.30
2022-09-06T09:56:03.848Z,59.30
2022-09-06T09:57:05.446Z,58.20
2022-09-06T09:58:03.811Z,58.22
2022-09-06T09:59:03.822Z,58.93
2022-09-06T10:00:04.711Z,58.53
2022-09-06T10:01:03.843Z,59.33
2022-09-06T10:02:03.836Z,59.23
2022-09-06T10:03:03.820Z,59.50
2022-09-06T10:05:05.170Z,58.70
2022-09-06T10:06:04.662Z,57.90
2022-09-06T10:08:04.461Z,59.10
2022-09-06T10:09:03.646Z,59.10
2022-09-06T10:10:04.006Z,59.00
2022-09-06T10:11:03.605Z,59.00
2022-09-06T10:12:04.623Z,58.77
2022-09-06T10:13:03.644Z,59.38
2022-09-06T10:14:03.907Z,59.27
2022-09-06T10:15:06.924Z,58.37
2022-09-06T10:16:03.622Z,59.08
2022-09-06T10:17:04.375Z,57.54
2022-09-06T10:18:03.571Z,57.54
2022-09-06T10:19:04.466Z,58.24
2022-09-06T10:20:03.560Z,57.74
2022-09-06T10:21:03.494Z,57.44
2022-09-06T10:22:03.535Z,57.24
2022-09-06T10:23:03.499Z,57.74
2022-09-06T10:25:06.419Z,58.72
2022-09-06T10:26:03.389Z,57.81
2022-09-06T10:27:03.430Z,57.89
2022-09-06T10:28:11.972Z,57.79
2022-09-06T10:29:05.253Z,57.89
2022-09-06T10:30:04.192Z,58.06
2022-09-06T10:31:03.573Z,57.26
2022-09-06T10:32:03.322Z,56.85
2022-09-06T10:33:04.135Z,57.56
2022-09-06T10:34:04.262Z,57.86
2022-09-06T10:35:03.304Z,56.45
2022-09-06T10:36:03.369Z,56.96
2022-09-06T10:37:04.233Z,55.75
2022-09-06T10:38:04.152Z,56.35
2022-09-06T10:39:04.223Z,56.05
2022-09-06T10:40:04.231Z,56.76
2022-09-06T10:41:03.196Z,56.05
2022-09-06T10:42:04.027Z,56.65
2022-09-06T10:43:03.166Z,56.05
2022-09-06T10:44:03.324Z,55.35
2022-09-06T10:45:03.152Z,56.56
2022-09-06T10:46:03.252Z,56.13
2022-09-06T10:47:04.043Z,56.43
2022-09-06T10:48:03.118Z,56.20
2022-09-06T10:49:05.025Z,56.70
2022-09-06T10:50:03.080Z,55.80
2022-09-06T10:51:05.030Z,55.70
2022-09-06T10:52:03.470Z,55.98
2022-09-06T10:53:03.439Z,55.27
2022-09-06T10:54:03.345Z,55.67
2022-09-06T10:55:03.042Z,56.27
2022-09-06T10:56:03.057Z,54.77
2022-09-06T10:57:03.981Z,54.87
2022-09-06T10:58:19.228Z,55.24
2022-09-06T11:00:03.954Z,56.35
2022-09-06T11:01:03.973Z,55.94
2022-09-06T11:02:03.120Z,55.02
2022-09-06T11:04:06.716Z,55.02
2022-09-06T11:06:03.880Z,54.32
2022-09-06T11:07:03.005Z,54.52
2022-09-06T11:09:03.798Z,55.02
2022-09-06T11:10:02.889Z,55.72
2022-09-06T11:11:02.857Z,54.92
2022-09-06T11:12:03.687Z,54.72
2022-09-06T11:13:02.840Z,53.92
2022-09-06T11:14:05.671Z,54.99
2022-09-06T11:15:02.725Z,54.19
2022-09-06T11:16:02.759Z,55.29
2022-09-06T11:17:02.678Z,54.19
2022-09-06T11:18:03.006Z,54.79
2022-09-06T11:19:02.660Z,55.19
2022-09-06T11:20:02.698Z,54.29
2022-09-06T11:21:03.718Z,54.69
2022-09-06T11:22:02.648Z,54.60
2022-09-06T11:23:02.627Z,54.39
2022-09-06T11:24:03.656Z,54.69
2022-09-06T11:25:02.853Z,53.99
2022-09-06T11:26:02.690Z,53.52
2022-09-06T11:27:02.571Z,56.02
2022-09-06T11:28:02.634Z,53.72
2022-09-06T11:29:02.555Z,54.72
2022-09-06T11:30:03.058Z,54.82
2022-09-06T11:31:02.562Z,54.82
2022-09-06T11:32:18.321Z,54.62
2022-09-06T11:33:03.485Z,54.62
2022-09-06T11:34:04.435Z,55.32
2022-09-06T11:35:02.588Z,55.42
2022-09-06T11:36:02.850Z,54.90
2022-09-06T11:37:02.500Z,54.90
2022-09-06T11:38:02.482Z,55.19
2022-09-06T11:39:03.412Z,55.69
2022-09-06T11:41:03.401Z,54.06
2022-09-06T11:42:02.366Z,53.69
2022-09-06T11:43:02.448Z,53.79
2022-09-06T11:44:02.380Z,54.29
2022-09-06T11:45:02.356Z,55.27
2022-09-06T11:46:03.043Z,53.57
2022-09-06T11:47:03.147Z,54.67
2022-09-06T11:48:03.041Z,54.06
2022-09-06T11:49:02.265Z,53.99
2022-09-06T11:50:02.246Z,54.19
2022-09-06T11:51:02.219Z,54.39
2022-09-06T11:52:02.220Z,54.29
2022-09-06T11:53:02.175Z,55.59
2022-09-06T11:54:02.191Z,56.09
2022-09-06T11:55:02.163Z,56.59
2022-09-06T11:56:02.153Z,56.67
2022-09-06T11:57:02.183Z,56.67
2022-09-06T11:58:02.143Z,55.47
2022-09-06T11:59:02.115Z,55.47
2022-09-06T12:00:02.917Z,54.27
2022-09-06T12:01:02.199Z,54.86
2022-09-06T12:02:02.101Z,55.07
2022-09-06T12:05:02.078Z,56.77
2022-09-06T12:06:02.868Z,55.87
2022-09-06T12:07:01.988Z,54.67
2022-09-06T12:08:01.975Z,54.77
2022-09-06T12:09:02.843Z,54.60
2022-09-06T12:10:01.958Z,55.40
2022-09-06T12:11:02.083Z,54.86
2022-09-06T12:12:01.933Z,55.66
2022-09-06T12:13:01.979Z,55.47
2022-09-06T12:14:02.850Z,54.86
2022-09-06T12:15:02.757Z,55.57
2022-09-06T12:16:02.064Z,55.57
2022-09-06T12:17:02.824Z,55.57
2022-09-06T12:18:01.833Z,55.27
2022-09-06T12:19:02.663Z,56.37
2022-09-06T12:20:02.834Z,55.97
2022-09-06T12:21:01.794Z,56.07
2022-09-06T12:22:01.812Z,55.27
2022-09-06T12:23:01.839Z,55.07
2022-09-06T12:24:02.777Z,54.77
2022-09-06T12:25:02.090Z,55.24
2022-09-06T12:26:01.729Z,54.94
2022-09-06T12:27:01.751Z,54.52
2022-09-06T12:28:01.719Z,54.32
2022-09-06T12:29:02.437Z,54.41
2022-09-06T12:30:02.602Z,53.69
2022-09-06T12:31:01.715Z,53.77
2022-09-06T12:32:01.638Z,52.76
2022-09-06T12:33:01.708Z,52.47
2022-09-06T12:34:01.817Z,52.74
2022-09-06T12:36:05.833Z,52.51
2022-09-06T12:37:03.492Z,52.62
2022-09-06T12:38:01.576Z,52.62
2022-09-06T12:39:02.488Z,51.40
2022-09-06T12:40:01.621Z,53.69
2022-09-06T12:41:02.332Z,52.29
2022-09-06T12:42:02.473Z,53.29
2022-09-06T12:43:01.501Z,51.97
2022-09-06T12:44:01.505Z,51.17
2022-09-06T12:45:01.456Z,51.59
2022-09-06T12:46:01.583Z,52.69
2022-09-06T12:47:02.245Z,52.00
2022-09-06T12:48:01.550Z,52.69
2022-09-06T12:49:01.385Z,51.72
2022-09-06T12:50:02.230Z,52.42
2022-09-06T12:51:01.348Z,52.84
2022-09-06T12:52:03.301Z,52.84
2022-09-06T12:53:02.182Z,53.14
2022-09-06T12:54:01.374Z,53.96
2022-09-06T12:55:01.484Z,53.56
2022-09-06T12:56:01.385Z,53.36
2022-09-06T12:57:01.302Z,54.29
2022-09-06T12:58:01.287Z,53.89
2022-09-06T12:59:02.127Z,54.52
2022-09-06T13:00:01.235Z,53.84
2022-09-06T13:01:01.242Z,54.44
2022-09-06T13:02:01.332Z,55.17
2022-09-06T13:03:02.020Z,55.27
2022-09-06T13:04:03.227Z,55.19
2022-09-06T13:05:02.067Z,56.29
2022-09-06T13:06:01.192Z,56.59
2022-09-06T13:07:01.159Z,57.09
2022-09-06T13:08:02.029Z,56.92
2022-09-06T13:09:01.111Z,56.72
2022-09-06T13:10:01.095Z,57.02
2022-09-06T13:11:01.990Z,57.35
2022-09-06T13:12:01.901Z,57.55
2022-09-06T13:13:01.084Z,58.55
2022-09-06T13:14:02.032Z,57.95
2022-09-06T13:15:01.029Z,58.25
2022-09-06T13:16:03.017Z,58.28
2022-09-06T13:17:01.017Z,58.18
2022-09-06T13:18:01.001Z,58.28
2022-09-06T13:19:00.951Z,59.18
2022-09-06T13:20:01.937Z,58.68